Time;durP1;ratioP1;P1;durP2;ratioP2;P2;SDS_P1;SDS_P2;PMS_P1;PMS_P2;Temp;Humidity;BMP_temperature;BMP_pressure;BME280_temperature;BME280_humidity;BME280_pressure;Samples;Min_cycle;Max_cycle;Signal;HPM_P1;HPM_P2
2022/11/08 00:01:37;;;;;;;5.90;1.40;;;;;;;12.55;92.50;100852.16;4993192;28;20432;-70
2022/11/08 00:04:05;;;;;;;5.00;1.37;;;;;;;12.50;92.69;100852.28;4992378;28;20908;-71
2022/11/08 00:14:46;;;;;;;6.70;1.43;;;;;;;12.35;93.27;100852.63;4992543;28;21039;-70
2022/11/08 00:19:36;;;;;;;12.57;1.77;;;;;;;12.35;93.20;100853.44;5107799;27;20414;-70
2022/11/08 00:22:03;;;;;;;6.63;1.70;;;;;;;12.31;91.84;100857.88;5111304;28;20448;-68
2022/11/08 00:24:29;;;;;;;5.27;1.70;;;;;;;12.30;92.29;100864.41;5109833;28;20459;-67
2022/11/08 00:26:56;;;;;;;5.23;1.97;;;;;;;12.17;91.41;100862.53;5110623;28;20435;-72
2022/11/08 00:29:22;;;;;;;3.97;1.23;;;;;;;12.11;92.06;100853.69;5089566;28;20985;-72
2022/11/08 00:31:48;;;;;;;4.93;1.50;;;;;;;12.03;92.82;100862.53;5091044;28;20445;-70
2022/11/08 00:34:15;;;;;;;5.33;1.43;;;;;;;12.01;93.28;100864.78;5089834;28;20467;-70
2022/11/08 00:36:43;;;;;;;9.23;2.23;;;;;;;11.93;94.27;100870.91;5089078;28;20457;-71
2022/11/08 00:39:10;;;;;;;5.07;1.60;;;;;;;11.92;94.95;100869.31;5089628;28;20545;-71
2022/11/08 00:41:36;;;;;;;4.87;1.43;;;;;;;11.92;95.05;100877.44;5089103;28;20441;-70
2022/11/08 00:44:03;;;;;;;4.77;1.50;;;;;;;11.94;94.97;100869.00;5090155;28;20942;-70
2022/11/08 00:46:29;;;;;;;5.70;1.30;;;;;;;11.92;95.54;100869.31;5089407;28;20960;-72
2022/11/08 00:48:56;;;;;;;4.00;1.33;;;;;;;11.91;95.91;100861.44;5088921;28;20947;-71
2022/11/08 00:51:22;;;;;;;5.30;1.37;;;;;;;11.89;95.96;100869.91;5090482;28;20494;-70
2022/11/08 00:53:50;;;;;;;8.10;1.70;;;;;;;11.84;96.42;100872.72;5089974;28;20945;-70
2022/11/08 00:56:16;;;;;;;7.07;1.57;;;;;;;11.86;96.46;100870.50;5088027;28;20965;-70
2022/11/08 00:58:43;;;;;;;4.40;1.40;;;;;;;11.82;95.58;100854.03;5090250;28;20585;-71
2022/11/08 01:01:10;;;;;;;5.00;1.60;;;;;;;11.80;94.60;100860.84;5088975;28;20517;-71
2022/11/08 01:03:37;;;;;;;4.63;1.40;;;;;;;11.79;95.68;100865.47;5089222;28;20468;-71
2022/11/08 01:06:05;;;;;;;4.23;1.30;;;;;;;11.81;95.09;100860.53;5090191;28;20445;-71
2022/11/08 01:08:32;;;;;;;7.43;1.60;;;;;;;11.79;94.61;100870.09;5089162;28;20496;-71
2022/11/08 01:11:02;;;;;;;7.80;1.60;;;;;;;11.71;94.05;100866.16;5089878;28;20929;-71
2022/11/08 01:13:30;;;;;;;5.70;1.80;;;;;;;11.72;95.81;100867.75;5088220;28;20801;-71
2022/11/08 01:15:56;;;;;;;10.13;1.97;;;;;;;11.66;96.30;100858.13;5090151;28;20436;-70
2022/11/08 01:18:23;;;;;;;4.67;1.77;;;;;;;11.66;96.67;100858.13;5098629;28;20491;-71
2022/11/08 01:20:49;;;;;;;5.43;1.70;;;;;;;11.68;96.62;100863.25;5110352;28;20828;-70
2022/11/08 01:23:17;;;;;;;4.73;1.40;;;;;;;11.68;97.07;100861.31;5107988;28;20956;-71
2022/11/08 01:25:46;;;;;;;5.50;1.50;;;;;;;11.58;97.79;100858.81;5109799;28;20436;-70
2022/11/08 01:28:14;;;;;;;6.93;2.20;;;;;;;11.65;97.45;100853.81;5109066;28;20483;-72
2022/11/08 01:30:42;;;;;;;4.60;1.47;;;;;;;11.65;97.29;100853.81;5097956;28;20996;-71
2022/11/08 01:33:09;;;;;;;11.97;1.60;;;;;;;11.65;97.21;100848.38;5093469;28;20509;-71
2022/11/08 01:35:37;;;;;;;4.23;1.43;;;;;;;11.58;97.31;100856.09;5096392;28;20497;-71
2022/11/08 01:38:04;;;;;;;6.83;2.10;;;;;;;11.60;97.90;100852.00;5094349;28;20528;-71
2022/11/08 01:40:31;;;;;;;7.10;2.23;;;;;;;11.55;98.01;100851.28;5096154;28;20444;-71
2022/11/08 01:42:58;;;;;;;9.47;2.10;;;;;;;11.50;97.86;100848.66;5093875;28;21017;-71
2022/11/08 01:46:01;;;;;;;7.50;1.73;;;;;;;11.48;98.07;100857.13;5096254;28;20490;-71
2022/11/08 01:48:29;;;;;;;6.37;1.37;;;;;;;11.53;98.29;100854.28;5057216;28;21011;-71
2022/11/08 01:50:59;;;;;;;7.80;1.80;;;;;;;11.57;98.92;100852.59;5094563;28;20468;-71
2022/11/08 01:53:28;;;;;;;8.07;2.20;;;;;;;11.56;97.94;100855.63;5094180;28;20452;-70
2022/11/08 01:55:55;;;;;;;4.20;1.57;;;;;;;11.49;96.69;100858.72;5096064;28;20514;-71
2022/11/08 01:58:25;;;;;;;6.20;1.97;;;;;;;11.52;97.31;100860.84;5094412;28;20498;-71
2022/11/08 02:00:52;;;;;;;4.50;1.20;;;;;;;11.53;97.05;100858.91;5095863;28;20441;-72
2022/11/08 02:06:42;;;;;;;5.20;1.70;;;;;;;11.56;96.19;100852.91;5095839;28;20427;-72
2022/11/08 02:09:12;;;;;;;4.63;1.53;;;;;;;11.51;97.57;100842.13;5092260;28;20481;-72
2022/11/08 02:11:39;;;;;;;5.33;1.80;;;;;;;11.58;97.72;100834.41;5095769;28;20448;-72
2022/11/08 02:14:06;;;;;;;4.83;1.60;;;;;;;11.62;97.95;100841.63;5093726;28;20464;-72
2022/11/08 02:16:32;;;;;;;6.10;2.03;;;;;;;11.61;97.88;100842.75;5095345;28;20942;-72
2022/11/08 02:18:59;;;;;;;8.47;1.60;;;;;;;11.63;98.19;100842.44;5094317;28;20488;-72
2022/11/08 02:21:28;;;;;;;5.37;1.90;;;;;;;11.66;98.20;100838.31;5093959;28;20841;-72
2022/11/08 02:23:59;;;;;;;6.03;2.00;;;;;;;11.68;98.28;100842.34;5093721;28;20865;-72
2022/11/08 02:26:31;;;;;;;8.10;1.70;;;;;;;11.72;98.07;100837.13;5094556;28;20448;-72
2022/11/08 02:28:58;;;;;;;10.30;1.70;;;;;;;11.72;98.03;100837.91;5094165;28;20488;-72
2022/11/08 02:31:24;;;;;;;5.40;1.60;;;;;;;11.75;97.92;100850.88;5095441;28;20493;-72
2022/11/08 02:33:51;;;;;;;7.57;2.20;;;;;;;11.72;98.21;100850.69;5092462;28;20460;-72
2022/11/08 02:36:21;;;;;;;6.43;1.87;;;;;;;11.72;97.89;100850.69;5092452;28;20514;-72
2022/11/08 02:38:52;;;;;;;10.13;1.97;;;;;;;11.67;98.19;100851.59;5095401;28;20464;-72
2022/11/08 02:41:20;;;;;;;8.00;1.77;;;;;;;11.67;97.95;100840.72;5092849;28;20957;-73
2022/11/08 02:43:46;;;;;;;8.93;1.70;;;;;;;11.65;98.23;100836.72;5095265;28;20444;-73
2022/11/08 02:46:13;;;;;;;5.20;1.30;;;;;;;11.65;98.21;100842.97;5093179;28;20461;-72
2022/11/08 02:48:39;;;;;;;5.40;1.50;;;;;;;11.65;98.16;100847.59;5090328;28;20487;-73
2022/11/08 02:51:06;;;;;;;5.73;1.90;;;;;;;11.64;97.15;100844.03;5095241;28;20557;-72
2022/11/08 02:53:32;;;;;;;5.03;1.87;;;;;;;11.57;96.15;100844.44;5093910;28;20456;-72
2022/11/08 02:55:59;;;;;;;5.23;1.40;;;;;;;11.54;96.25;100846.97;5093353;28;20463;-72
2022/11/08 02:58:27;;;;;;;7.47;1.80;;;;;;;11.57;97.81;100840.94;5092888;28;20529;-72
2022/11/08 03:00:53;;;;;;;11.90;2.00;;;;;;;11.61;97.64;100847.38;5094965;28;20527;-72
2022/11/08 03:03:20;;;;;;;4.70;1.70;;;;;;;11.66;98.21;100854.59;5092587;28;20961;-72
2022/11/08 03:05:47;;;;;;;4.20;1.33;;;;;;;11.72;98.31;100850.69;5094795;28;20493;-71
2022/11/08 03:08:14;;;;;;;3.87;1.13;;;;;;;11.73;98.59;100844.97;5092616;28;20545;-72
2022/11/08 03:10:40;;;;;;;6.40;2.30;;;;;;;11.79;98.41;100848.38;5094471;28;20440;-72
2022/11/08 03:13:07;;;;;;;8.27;2.13;;;;;;;11.86;98.20;100846.06;5092761;28;20573;-72
2022/11/08 03:15:35;;;;;;;6.63;1.57;;;;;;;11.91;97.93;100847.88;5094521;28;20535;-72
2022/11/08 03:18:02;;;;;;;4.63;1.47;;;;;;;11.93;97.75;100838.34;5090258;28;20496;-72
2022/11/08 03:20:28;;;;;;;5.20;1.67;;;;;;;11.93;97.52;100846.47;5094425;28;20444;-72
2022/11/08 03:22:58;;;;;;;4.63;1.53;;;;;;;11.93;97.47;100849.19;5093101;28;21030;-72
2022/11/08 03:25:24;;;;;;;6.07;2.27;;;;;;;11.95;97.48;100840.75;5093569;28;20465;-72
2022/11/08 03:27:51;;;;;;;5.33;1.50;;;;;;;11.92;97.35;100842.16;5094177;28;20476;-72
2022/11/08 03:30:17;;;;;;;5.77;1.90;;;;;;;11.89;97.68;100836.53;5091899;28;20480;-72
2022/11/08 03:32:45;;;;;;;4.50;1.17;;;;;;;11.90;97.75;100838.13;5093781;28;20486;-72
2022/11/08 03:35:12;;;;;;;12.03;2.03;;;;;;;11.84;97.31;100832.00;5093432;28;20467;-73
2022/11/08 03:37:39;;;;;;;5.47;1.60;;;;;;;11.76;97.60;100833.50;5093139;28;20499;-73
2022/11/08 03:40:06;;;;;;;7.40;1.80;;;;;;;11.68;97.28;100828.75;5091976;28;20453;-72
2022/11/08 03:42:33;;;;;;;7.80;1.70;;;;;;;11.61;96.48;100840.03;5094322;28;20436;-72
2022/11/08 03:45:00;;;;;;;4.10;1.20;;;;;;;11.52;95.40;100833.72;5093008;28;20513;-73
2022/11/08 03:47:26;;;;;;;4.03;1.30;;;;;;;11.41;94.71;100820.63;5093940;28;20537;-72
2022/11/08 03:49:54;;;;;;;5.23;1.20;;;;;;;11.29;94.20;100832.78;5092800;28;20503;-73
2022/11/08 03:52:20;;;;;;;5.43;1.40;;;;;;;11.23;94.22;100833.97;5093779;28;20452;-72
2022/11/08 03:54:47;;;;;;;3.80;1.10;;;;;;;11.09;95.93;100819.59;5092727;28;20847;-68
2022/11/08 03:57:13;;;;;;;10.17;1.73;;;;;;;11.04;96.39;100830.53;5092179;28;20529;-73
2022/11/08 03:59:39;;;;;;;6.47;1.50;;;;;;;10.99;97.08;100825.19;5091856;28;20861;-74
2022/11/08 04:02:06;;;;;;;6.00;1.30;;;;;;;10.94;98.61;100819.88;5093755;28;20436;-72
2022/11/08 04:04:32;;;;;;;4.53;1.67;;;;;;;10.90;99.17;100822.38;5092670;28;20541;-72
2022/11/08 04:07:00;;;;;;;4.40;1.50;;;;;;;10.89;99.80;100820.75;5093547;28;20557;-72
2022/11/08 04:09:26;;;;;;;4.50;1.50;;;;;;;10.89;99.81;100822.66;5091479;28;20500;-71
2022/11/08 04:21:17;;;;;;;9.07;2.30;;;;;;;10.84;100.00;100827.03;5092003;28;20546;-71
2022/11/08 04:22:54;;;;;;;4.70;1.60;;;;;;;10.77;100.00;100829.34;5032891;28;20574;-67
2022/11/08 04:25:20;;;;;;;5.40;1.97;;;;;;;10.80;100.00;100823.34;5031316;28;20467;-67
2022/11/08 04:27:47;;;;;;;4.50;1.57;;;;;;;10.81;100.00;100829.56;5033230;28;20445;-67
2022/11/08 04:30:13;;;;;;;4.63;1.30;;;;;;;10.81;100.00;100835.78;5051908;28;20544;-66
2022/11/08 04:32:40;;;;;;;5.00;1.50;;;;;;;10.78;100.00;100827.44;5052626;28;20984;-68
2022/11/08 04:35:06;;;;;;;5.57;1.83;;;;;;;10.72;100.00;100831.34;5050789;28;20462;-67
2022/11/08 04:37:33;;;;;;;7.10;2.07;;;;;;;10.71;100.00;100833.22;5052906;28;20446;-67
2022/11/08 04:40:01;;;;;;;4.80;1.50;;;;;;;10.72;100.00;100834.84;5051912;28;20501;-67
2022/11/08 04:42:27;;;;;;;9.73;2.30;;;;;;;10.65;100.00;100831.72;5052916;28;20787;-68
2022/11/08 04:44:53;;;;;;;6.20;1.77;;;;;;;10.64;100.00;100832.81;5051016;28;20465;-67
2022/11/08 04:47:20;;;;;;;5.33;1.67;;;;;;;10.58;100.00;100831.25;5051646;28;20449;-69
2022/11/08 04:49:46;;;;;;;8.30;1.70;;;;;;;10.61;100.00;100836.09;5052374;28;20490;-67
2022/11/08 04:52:15;;;;;;;4.73;1.50;;;;;;;10.63;100.00;100843.94;5052893;28;20442;-69
2022/11/08 04:54:43;;;;;;;4.70;1.70;;;;;;;10.63;100.00;100835.84;5050453;28;20492;-68
2022/11/08 04:57:11;;;;;;;18.63;2.10;;;;;;;10.56;100.00;100833.47;5052595;28;20449;-68
2022/11/08 04:59:38;;;;;;;11.93;2.00;;;;;;;10.52;100.00;100835.16;5052696;28;20454;-68
2022/11/08 05:02:04;;;;;;;5.10;1.37;;;;;;;10.52;100.00;100843.28;5048166;28;20469;-68
2022/11/08 05:04:31;;;;;;;5.40;1.43;;;;;;;10.53;100.00;100839.47;5052469;28;20466;-68
2022/11/08 05:06:57;;;;;;;5.60;1.87;;;;;;;10.50;100.00;100831.97;5053791;28;20469;-68
2022/11/08 05:09:24;;;;;;;5.13;1.70;;;;;;;10.46;100.00;100833.63;5055329;28;20539;-67
2022/11/08 05:11:50;;;;;;;6.50;1.70;;;;;;;10.47;100.00;100827.91;5056558;28;20862;-67
2022/11/08 05:14:18;;;;;;;5.17;1.73;;;;;;;10.51;100.00;100825.44;5055269;28;20888;-68
2022/11/08 05:16:44;;;;;;;5.60;1.63;;;;;;;10.51;100.00;100825.44;5054108;28;20515;-67
2022/11/08 05:19:11;;;;;;;11.33;2.03;;;;;;;10.50;100.00;100824.63;5055929;28;20543;-67
2022/11/08 05:24:21;;;;;;;4.50;1.50;;;;;;;10.53;100.00;100825.94;5056010;28;20902;-67
2022/11/08 05:26:49;;;;;;;4.60;1.50;;;;;;;10.38;100.00;100823.47;5055100;28;20458;-68
2022/11/08 05:29:17;;;;;;;7.57;2.10;;;;;;;10.31;100.00;100821.94;5055884;28;20493;-67
2022/11/08 05:31:44;;;;;;;5.20;1.20;;;;;;;10.28;100.00;100825.22;5055074;28;20458;-67
2022/11/08 05:34:10;;;;;;;4.77;1.50;;;;;;;10.19;100.00;100816.13;5055662;28;20939;-67
2022/11/08 05:36:37;;;;;;;9.43;1.97;;;;;;;10.14;100.00;100818.91;5053981;28;20490;-68
2022/11/08 05:39:03;;;;;;;4.50;1.43;;;;;;;10.10;100.00;100818.69;5055797;28;20461;-67
2022/11/08 05:41:30;;;;;;;10.40;2.00;;;;;;;10.09;100.00;100808.13;5053589;28;21026;-67
2022/11/08 05:43:56;;;;;;;4.37;1.40;;;;;;;10.03;100.00;100812.81;5055549;28;20454;-67
2022/11/08 05:46:24;;;;;;;6.13;2.00;;;;;;;10.00;100.00;100816.09;5055773;28;20500;-67
2022/11/08 05:48:51;;;;;;;7.00;2.30;;;;;;;10.05;100.00;100815.25;5035862;28;20460;-68
2022/11/08 05:51:18;;;;;;;6.50;1.77;;;;;;;10.04;100.00;100806.31;5038726;28;20465;-66
2022/11/08 05:53:45;;;;;;;4.87;1.87;;;;;;;10.05;100.00;100815.25;5055536;28;20523;-67
2022/11/08 05:56:12;;;;;;;5.63;1.87;;;;;;;10.03;100.00;100814.72;5054067;28;20453;-68
2022/11/08 05:58:38;;;;;;;8.37;2.57;;;;;;;10.06;100.00;100811.44;5049973;28;20508;-67
2022/11/08 06:01:07;;;;;;;7.20;2.27;;;;;;;9.98;100.00;100823.72;5052721;28;20453;-68
2022/11/08 06:03:35;;;;;;;4.43;1.50;;;;;;;10.01;100.00;100825.03;5055292;28;20501;-67
2022/11/08 06:06:02;;;;;;;4.87;1.80;;;;;;;9.95;100.00;100823.47;5050095;28;20461;-67
2022/11/08 06:08:29;;;;;;;7.47;2.80;;;;;;;9.86;100.00;100821.41;5050806;28;20518;-67
2022/11/08 06:11:01;;;;;;;6.40;2.10;;;;;;;9.86;100.00;100824.13;5053796;28;20485;-67
2022/11/08 06:13:28;;;;;;;7.77;2.90;;;;;;;9.95;100.00;100831.59;5055248;28;20426;-67
2022/11/08 06:15:54;;;;;;;7.83;2.47;;;;;;;9.93;100.00;100825.69;5053143;28;20819;-68
2022/11/08 06:18:21;;;;;;;10.00;2.57;;;;;;;9.84;100.00;100825.53;5054738;28;20482;-67
2022/11/08 06:20:48;;;;;;;5.73;2.13;;;;;;;9.82;100.00;100836.63;5054004;28;20438;-68
2022/11/08 06:23:15;;;;;;;9.23;1.77;;;;;;;9.81;100.00;100837.72;5054739;28;20512;-68
2022/11/08 06:25:41;;;;;;;6.00;2.00;;;;;;;9.88;100.00;100836.59;5054083;28;20821;-68
2022/11/08 06:28:08;;;;;;;11.00;2.37;;;;;;;9.84;100.00;100839.06;5053586;28;20477;-68
2022/11/08 06:30:34;;;;;;;5.30;2.03;;;;;;;9.87;100.00;100846.56;5053833;28;20532;-67
2022/11/08 06:33:00;;;;;;;4.73;1.77;;;;;;;9.89;100.00;100843.59;5054091;28;20458;-67
2022/11/08 06:35:27;;;;;;;6.63;1.90;;;;;;;9.86;100.00;100837.66;5053739;28;20455;-67
2022/11/08 06:37:55;;;;;;;8.97;3.00;;;;;;;9.88;100.00;100836.59;5053489;28;20462;-67
2022/11/08 06:40:21;;;;;;;8.70;2.30;;;;;;;9.91;100.00;100835.97;5054679;28;20439;-67
2022/11/08 06:42:47;;;;;;;5.30;2.03;;;;;;;9.92;100.00;100843.03;5053424;28;20454;-67
2022/11/08 06:45:14;;;;;;;15.93;2.43;;;;;;;9.88;100.00;100842.78;5054702;28;20442;-69
2022/11/08 06:47:41;;;;;;;12.53;3.40;;;;;;;9.93;100.00;100844.63;5052698;28;20470;-71
2022/11/08 06:50:07;;;;;;;5.33;2.00;;;;;;;9.97;100.00;100848.38;5054292;28;20486;-69
2022/11/08 06:52:34;;;;;;;5.33;2.00;;;;;;;9.97;100.00;100848.38;5053718;28;20610;-70
2022/11/08 06:55:01;;;;;;;6.57;2.27;;;;;;;9.99;100.00;100846.97;5054457;28;20461;-68
2022/11/08 06:57:28;;;;;;;7.40;2.87;;;;;;;10.02;100.00;100851.81;5052418;28;20576;-68
2022/11/08 06:59:54;;;;;;;5.10;2.20;;;;;;;10.02;100.00;100845.59;5054290;28;20454;-69
2022/11/08 07:02:21;;;;;;;5.97;1.90;;;;;;;10.01;100.00;100849.41;5054229;28;20543;-68
2022/11/08 07:04:47;;;;;;;7.80;2.40;;;;;;;9.95;100.00;100850.53;5054161;28;20442;-73
2022/11/08 07:07:14;;;;;;;5.50;2.17;;;;;;;9.97;100.00;100851.88;5044517;28;20856;-70
2022/11/08 07:09:40;;;;;;;6.37;2.47;;;;;;;9.93;100.00;100853.56;5052679;28;20486;-70
2022/11/08 07:12:08;;;;;;;9.97;2.67;;;;;;;9.91;100.00;100846.81;5053167;28;20462;-70
2022/11/08 07:14:35;;;;;;;8.60;2.40;;;;;;;9.95;100.00;100842.44;5054131;28;20460;-68
2022/11/08 07:17:01;;;;;;;5.80;2.50;;;;;;;9.98;100.00;100836.44;5051216;28;20462;-69
2022/11/08 07:19:28;;;;;;;8.00;2.40;;;;;;;9.98;100.00;100841.84;5053704;28;20482;-70
2022/11/08 07:21:54;;;;;;;5.77;2.00;;;;;;;10.04;100.00;100837.97;5053184;28;20458;-69
2022/11/08 07:24:20;;;;;;;6.00;1.73;;;;;;;10.10;100.00;100837.63;5053994;28;20808;-69
2022/11/08 07:26:47;;;;;;;16.53;3.07;;;;;;;10.17;100.00;100837.25;5051355;28;20476;-72
2022/11/08 07:29:15;;;;;;;6.87;2.17;;;;;;;10.19;100.00;100840.50;5053969;28;20508;-70
2022/11/08 07:31:41;;;;;;;8.57;2.53;;;;;;;10.25;100.00;100850.16;5052733;28;20808;-70
2022/11/08 07:34:07;;;;;;;8.90;2.00;;;;;;;10.33;100.00;100846.00;5053878;28;20449;-71
2022/11/08 07:36:34;;;;;;;5.70;2.40;;;;;;;10.38;100.00;100855.97;5053084;28;20458;-70
2022/11/08 07:39:00;;;;;;;8.67;2.27;;;;;;;10.39;100.00;100844.03;5051841;28;20527;-70
2022/11/08 07:41:27;;;;;;;8.57;2.07;;;;;;;10.41;100.00;100849.97;5052403;28;20835;-69
2022/11/08 07:43:53;;;;;;;6.30;2.20;;;;;;;10.49;100.00;100846.56;5052541;28;20832;-69
2022/11/08 07:46:21;;;;;;;5.87;2.67;;;;;;;10.51;100.00;100852.53;5053492;28;20445;-70
2022/11/08 07:48:47;;;;;;;8.27;2.83;;;;;;;10.54;100.00;100851.94;5052739;28;20482;-70
2022/11/08 07:51:14;;;;;;;6.67;2.80;;;;;;;10.64;100.00;100850.97;5053299;28;20481;-70
2022/11/08 07:53:42;;;;;;;5.53;2.03;;;;;;;10.65;100.00;100855.28;5052510;28;20512;-73
2022/11/08 07:56:08;;;;;;;6.80;2.63;;;;;;;10.71;100.00;100843.25;5048168;28;20466;-71
2022/11/08 07:58:35;;;;;;;7.03;2.50;;;;;;;10.77;100.00;100845.59;5051376;28;20478;-68
2022/11/08 08:01:02;;;;;;;11.70;3.20;;;;;;;10.81;100.00;100851.25;5053146;28;20446;-68
2022/11/08 08:03:30;;;;;;;7.07;2.73;;;;;;;10.88;100.00;100840.81;5048526;28;20839;-68
2022/11/08 08:05:57;;;;;;;5.27;2.00;;;;;;;10.95;100.00;100835.81;5052276;28;20462;-67
2022/11/08 08:08:23;;;;;;;6.37;2.30;;;;;;;11.01;100.00;100837.34;5050860;28;20508;-67
2022/11/08 08:10:50;;;;;;;7.73;2.67;;;;;;;11.06;100.00;100831.03;5052097;28;20489;-67
2022/11/08 08:13:16;;;;;;;6.30;2.23;;;;;;;11.07;100.00;100838.06;5052199;28;20528;-67
2022/11/08 08:15:43;;;;;;;6.50;2.00;;;;;;;11.13;100.00;100830.66;5051170;28;20837;-68
2022/11/08 08:18:10;;;;;;;5.10;1.80;;;;;;;11.22;100.00;100837.78;5051691;28;20541;-68
2022/11/08 08:20:38;;;;;;;7.87;2.63;;;;;;;11.30;100.00;100820.03;5053245;28;20429;-68
2022/11/08 08:23:05;;;;;;;5.90;2.40;;;;;;;11.43;100.00;100829.28;5052090;28;20458;-68
2022/11/08 08:25:32;;;;;;;9.13;2.40;;;;;;;11.55;100.00;100832.28;5053038;28;20453;-69
2022/11/08 08:28:00;;;;;;;5.70;2.23;;;;;;;11.61;100.00;100826.47;5052057;28;20882;-67
2022/11/08 08:30:28;;;;;;;10.47;3.20;;;;;;;11.72;100.00;100821.63;5052983;28;20486;-68
2022/11/08 08:33:01;;;;;;;8.83;2.77;;;;;;;11.85;100.00;100825.47;5051034;28;20998;-69
2022/11/08 08:35:28;;;;;;;4.50;1.80;;;;;;;11.88;99.95;100824.88;5053127;28;20450;-69
2022/11/08 08:37:59;;;;;;;8.33;3.00;;;;;;;11.95;99.58;100817.09;5051893;28;20438;-68
2022/11/08 08:40:25;;;;;;;13.37;2.80;;;;;;;12.01;99.39;100817.81;5055255;28;20434;-68
2022/11/08 08:42:51;;;;;;;8.87;2.27;;;;;;;12.07;98.90;100828.25;5055013;28;20454;-69
2022/11/08 08:45:18;;;;;;;6.63;1.90;;;;;;;12.21;98.13;100817.34;5056906;28;20453;-68
2022/11/08 08:47:44;;;;;;;8.57;2.60;;;;;;;12.29;97.89;100813.91;5055859;28;20442;-70
2022/11/08 08:50:11;;;;;;;12.27;3.10;;;;;;;12.34;97.79;100819.22;5055560;28;20492;-68
2022/11/08 08:52:37;;;;;;;6.47;2.67;;;;;;;12.41;97.59;100818.00;5055352;28;20808;-69
2022/11/08 08:55:06;;;;;;;5.30;2.00;;;;;;;12.54;96.33;100817.16;5056410;28;20477;-68
2022/11/08 08:57:33;;;;;;;8.63;3.07;;;;;;;12.64;95.86;100811.47;5055332;28;20446;-69
2022/11/08 08:59:59;;;;;;;5.07;1.80;;;;;;;12.74;95.16;100813.13;5053631;28;20470;-68
2022/11/08 09:02:25;;;;;;;6.63;2.43;;;;;;;12.73;95.78;100806.09;5054333;28;20461;-69
2022/11/08 09:04:52;;;;;;;5.37;2.10;;;;;;;12.77;95.71;100818.75;5056592;28;20985;-69
2022/11/08 09:07:19;;;;;;;8.60;2.50;;;;;;;12.87;94.97;100815.78;5054005;28;20974;-68
2022/11/08 09:09:45;;;;;;;8.53;2.40;;;;;;;12.97;94.66;100819.34;5056353;28;20512;-69
2022/11/08 09:12:13;;;;;;;6.03;2.20;;;;;;;12.97;94.73;100814.72;5054143;28;20457;-69
2022/11/08 09:14:39;;;;;;;13.43;2.07;;;;;;;13.02;94.72;100809.16;5052354;28;20951;-69
2022/11/08 09:17:06;;;;;;;9.00;1.93;;;;;;;13.07;94.33;100811.75;5055951;28;20448;-69
2022/11/08 09:19:32;;;;;;;6.60;1.70;;;;;;;13.17;94.22;100815.31;5053369;28;20489;-68
2022/11/08 09:21:59;;;;;;;10.20;2.10;;;;;;;13.22;93.40;100818.72;5053412;28;20508;-69
2022/11/08 09:24:25;;;;;;;4.63;1.70;;;;;;;13.31;91.87;100810.59;5053364;28;20458;-74
2022/11/08 09:26:51;;;;;;;4.60;1.57;;;;;;;13.40;91.50;100807.91;5055115;28;20457;-70
2022/11/08 09:29:19;;;;;;;4.80;1.70;;;;;;;13.42;92.48;100802.97;5056025;28;20473;-69
2022/11/08 09:31:46;;;;;;;5.47;1.90;;;;;;;13.47;92.19;100805.53;5055461;28;20493;-70
2022/11/08 09:34:12;;;;;;;7.83;2.20;;;;;;;13.55;91.27;100811.03;5054798;28;20471;-71
2022/11/08 09:36:39;;;;;;;6.00;1.80;;;;;;;13.68;90.49;100814.75;5056241;28;20795;-71
2022/11/08 09:39:05;;;;;;;4.23;1.60;;;;;;;13.77;89.57;100807.41;5051869;28;21002;-71
2022/11/08 09:41:58;;;;;;;13.03;1.53;;;;;;;13.85;89.20;100803.88;5055263;28;20446;-70
2022/11/08 09:44:57;;;;;;;7.10;2.33;;;;;;;13.95;88.08;100810.97;5052064;28;20496;-70
2022/11/08 09:47:25;;;;;;;4.67;1.27;;;;;;;14.08;87.81;100806.50;5055766;28;20453;-70
2022/11/08 09:50:02;;;;;;;5.00;1.47;;;;;;;14.21;87.75;100802.81;5054696;28;20862;-70
2022/11/08 09:52:32;;;;;;;3.73;1.00;;;;;;;14.29;86.80;100812.09;5054406;28;20462;-70
2022/11/08 09:55:10;;;;;;;10.03;1.80;;;;;;;14.41;85.95;100798.63;5053672;28;20461;-70
2022/11/08 09:57:50;;;;;;;5.83;1.93;;;;;;;14.50;86.85;100802.19;5049836;28;20455;-70
2022/11/08 10:00:20;;;;;;;4.10;1.40;;;;;;;14.54;84.65;100796.91;5035542;28;20427;-72
2022/11/08 10:02:47;;;;;;;4.27;1.10;;;;;;;14.60;84.83;100790.16;5035729;28;20522;-71
2022/11/08 10:05:17;;;;;;;6.80;1.53;;;;;;;14.70;85.04;100797.19;5035464;28;20896;-68
2022/11/08 10:07:50;;;;;;;6.33;1.60;;;;;;;14.76;83.92;100793.19;5034986;28;20907;-68
2022/11/08 10:10:33;;;;;;;4.47;1.20;;;;;;;14.93;83.55;100795.06;5034919;28;20438;-68
2022/11/08 10:13:08;;;;;;;4.60;1.10;;;;;;;14.98;82.44;100794.91;5035011;28;20438;-69
2022/11/08 10:15:42;;;;;;;5.30;1.40;;;;;;;15.03;82.19;100794.72;5034967;28;20430;-71
2022/11/08 10:18:50;;;;;;;5.60;1.30;;;;;;;15.10;83.20;100784.91;5034341;28;21044;-72
2022/11/08 10:21:31;;;;;;;8.57;1.60;;;;;;;15.25;81.31;100789.00;4998917;28;20454;-72
2022/11/08 10:24:03;;;;;;;7.80;1.40;;;;;;;15.37;81.47;100780.94;5034934;28;20493;-71
2022/11/08 10:26:35;;;;;;;4.70;0.93;;;;;;;15.49;80.94;100782.16;5034736;28;20424;-71
2022/11/08 10:29:07;;;;;;;5.97;1.40;;;;;;;15.60;80.62;100780.66;5034299;28;21039;-72
2022/11/08 10:31:39;;;;;;;8.20;1.73;;;;;;;15.70;79.15;100777.56;5034415;28;20474;-72
2022/11/08 10:34:13;;;;;;;5.63;1.10;;;;;;;15.75;78.37;100769.19;5034631;28;20442;-72
2022/11/08 10:36:42;;;;;;;4.53;1.17;;;;;;;15.83;78.84;100781.19;5041938;28;20537;-71
2022/11/08 10:39:14;;;;;;;12.30;1.57;;;;;;;15.93;78.17;100782.72;5050469;28;20474;-72
2022/11/08 10:41:45;;;;;;;6.40;1.80;;;;;;;16.02;76.46;100772.53;5054612;28;20789;-72
2022/11/08 10:44:14;;;;;;;19.83;1.87;;;;;;;16.06;77.31;100774.25;5052973;28;20459;-72
2022/11/08 10:46:44;;;;;;;11.43;1.47;;;;;;;16.06;76.92;100779.72;5054242;28;20450;-71
2022/11/08 10:49:15;;;;;;;11.20;1.27;;;;;;;16.07;76.27;100775.06;5053021;28;20477;-71
2022/11/08 10:51:43;;;;;;;6.70;1.30;;;;;;;16.09;76.57;100770.09;5052460;28;21002;-71
2022/11/08 10:54:42;;;;;;;3.97;1.00;;;;;;;16.21;77.17;100769.34;5050788;28;20543;-71
2022/11/08 10:57:09;;;;;;;4.57;1.37;;;;;;;16.31;76.70;100768.94;5054004;28;20492;-71
2022/11/08 10:59:36;;;;;;;7.30;1.20;;;;;;;16.47;75.95;100766.38;5052709;28;20474;-71
2022/11/08 11:02:20;;;;;;;3.73;0.90;;;;;;;16.98;73.92;100756.06;5052902;28;20805;-71
2022/11/08 11:04:47;;;;;;;3.90;0.90;;;;;;;17.66;70.46;100756.28;5050810;28;20457;-71
2022/11/08 11:07:33;;;;;;;12.90;2.73;;;;;;;18.29;68.34;100756.63;5052354;28;20466;-69
2022/11/08 11:10:18;;;;;;;4.73;1.20;;;;;;;19.42;64.86;100757.19;5050079;28;21017;-68
2022/11/08 11:12:49;;;;;;;6.23;1.87;;;;;;;20.15;62.48;100766.69;5053621;28;20445;-68
2022/11/08 11:15:16;;;;;;;7.60;1.30;;;;;;;20.84;58.96;100755.84;5053500;28;20426;-70
2022/11/08 11:17:46;;;;;;;4.90;1.43;;;;;;;21.41;57.15;100749.34;5053831;28;20453;-69
2022/11/08 11:20:21;;;;;;;4.23;1.10;;;;;;;21.18;54.68;100751.31;5053113;28;20450;-69
2022/11/08 11:22:49;;;;;;;4.63;1.67;;;;;;;21.20;56.57;100748.97;5045075;28;20569;-68
2022/11/08 11:25:19;;;;;;;5.33;1.53;;;;;;;21.59;54.46;100748.81;5036463;28;20466;-70
2022/11/08 11:27:52;;;;;;;4.60;1.30;;;;;;;22.07;53.61;100746.31;5052770;28;20462;-70
2022/11/08 11:30:29;;;;;;;4.70;1.63;;;;;;;22.39;51.18;100753.00;5052925;28;20426;-69
2022/11/08 11:33:00;;;;;;;9.83;1.50;;;;;;;22.88;49.97;100762.19;5052936;28;20485;-70
2022/11/08 11:35:35;;;;;;;5.00;0.93;;;;;;;22.44;50.42;100746.38;5053092;28;20426;-69
2022/11/08 11:38:06;;;;;;;4.50;1.20;;;;;;;22.47;51.00;100737.34;5050872;28;20454;-70
2022/11/08 11:40:38;;;;;;;7.23;1.20;;;;;;;22.42;51.11;100738.47;5051737;28;20471;-69
2022/11/08 11:43:10;;;;;;;5.90;0.90;;;;;;;21.82;52.34;100735.72;5050683;28;20454;-70
2022/11/08 11:45:43;;;;;;;3.80;0.83;;;;;;;21.71;52.60;100732.06;5051805;28;20462;-68
2022/11/08 11:48:16;;;;;;;4.20;1.07;;;;;;;22.30;52.34;100729.66;5052121;28;20489;-70
2022/11/08 11:50:45;;;;;;;7.83;1.27;;;;;;;22.39;50.69;100728.16;5051547;28;20466;-70
2022/11/08 11:53:17;;;;;;;4.50;0.90;;;;;;;22.23;50.41;100726.81;5051626;28;20955;-69